Home Latest Filings Latest Buys Latest Sells Institutions Derivatives Hot Buys Data Screener Email Alerts Insider Charts
CYTK - As of  10/20/17, 06:30:15 AM:   944 Insider Transactions.

Sector: Healthcare    Industry: Biotechnology
Prev Close:$0.00  Avg Vol(3m): 0  P/E: 0.00  EPS: 0.00

Email this page to a friend.    Institutional Transactions for CYTK

                Buy: Blue    Sell: Red
Non-meaningful transactions (gifts, grants, etc.) are automatically filtered out for quicker actions.
Buy(P) /
Sell(S)
P/S date Filed Date Company Symbol Insider Relationship Share Amt. Unit Price Total Proceeds Shares Owned Return(1m) Details
S 2017-10-06 2017-10-10 19:20:50 CYTOKINETICS INC CYTK McDowell Caryn Gordon officer (GC & Chief Compliance Officer) 1,598 $15.70 $25,088.60 16,771 view
S 2017-10-06 2017-10-10 19:20:50 CYTOKINETICS INC CYTK McDowell Caryn Gordon officer (GC & Chief Compliance Officer) 200 $15.95 $3,190.00 18,369 view
S 2017-10-06 2017-10-10 19:20:50 CYTOKINETICS INC CYTK McDowell Caryn Gordon officer (GC & Chief Compliance Officer) 200 $15.75 $3,150.00 18,569 view
S 2017-10-06 2017-10-10 19:20:50 CYTOKINETICS INC CYTK McDowell Caryn Gordon officer (GC & Chief Compliance Officer) 100 $15.73 $1,572.50 18,769 view
S 2017-10-06 2017-10-10 19:20:50 CYTOKINETICS INC CYTK McDowell Caryn Gordon officer (GC & Chief Compliance Officer) 1,100 $15.70 $17,270.00 18,869 view
S 2017-10-06 2017-10-10 19:20:50 CYTOKINETICS INC CYTK McDowell Caryn Gordon officer (GC & Chief Compliance Officer) 800 $15.68 $12,540.00 19,969 view
S 2017-10-06 2017-10-10 19:20:50 CYTOKINETICS INC CYTK McDowell Caryn Gordon officer (GC & Chief Compliance Officer) 700 $15.65 $10,955.00 20,769 view
S 2017-10-06 2017-10-10 19:20:50 CYTOKINETICS INC CYTK McDowell Caryn Gordon officer (GC & Chief Compliance Officer) 200 $15.62 $3,125.00 21,469 view
S 2017-10-06 2017-10-10 19:20:50 CYTOKINETICS INC CYTK McDowell Caryn Gordon officer (GC & Chief Compliance Officer) 1,100 $15.60 $17,160.00 21,669 view
S 2017-10-06 2017-10-10 19:20:50 CYTOKINETICS INC CYTK McDowell Caryn Gordon officer (GC & Chief Compliance Officer) 400 $15.57 $6,230.00 22,769 view
S 2017-10-06 2017-10-10 19:20:50 CYTOKINETICS INC CYTK McDowell Caryn Gordon officer (GC & Chief Compliance Officer) 700 $15.55 $10,885.00 23,169 view
S 2017-10-06 2017-10-10 19:20:50 CYTOKINETICS INC CYTK McDowell Caryn Gordon officer (GC & Chief Compliance Officer) 200 $15.50 $3,100.00 23,869 view
S 2017-10-06 2017-10-10 19:20:50 CYTOKINETICS INC CYTK McDowell Caryn Gordon officer (GC & Chief Compliance Officer) 600 $15.40 $9,240.00 24,069 view
S 2017-10-06 2017-10-10 19:20:50 CYTOKINETICS INC CYTK McDowell Caryn Gordon officer (GC & Chief Compliance Officer) 1,106 $15.35 $16,977.10 24,669 view
S 2017-10-06 2017-10-10 19:20:50 CYTOKINETICS INC CYTK McDowell Caryn Gordon officer (GC & Chief Compliance Officer) 200 $15.32 $3,065.00 25,775 view
S 2017-10-06 2017-10-10 19:20:50 CYTOKINETICS INC CYTK McDowell Caryn Gordon officer (GC & Chief Compliance Officer) 1,094 $15.30 $16,738.20 25,975 view
S 2017-10-06 2017-10-10 19:20:50 CYTOKINETICS INC CYTK McDowell Caryn Gordon officer (GC & Chief Compliance Officer) 383 $15.27 $5,850.33 27,069 view
S 2017-10-06 2017-10-10 19:20:50 CYTOKINETICS INC CYTK McDowell Caryn Gordon officer (GC & Chief Compliance Officer) 500 $15.25 $7,625.00 23,733 view
S 2017-10-06 2017-10-10 19:20:50 CYTOKINETICS INC CYTK McDowell Caryn Gordon officer (GC & Chief Compliance Officer) 2,000 $15.20 $30,400.00 22,726 view
S 2017-10-02 2017-10-04 18:54:21 CYTOKINETICS INC CYTK GAGE L PATRICK director 400 $14.68 $5,870.00 30,000 view
S 2017-10-02 2017-10-04 18:54:21 CYTOKINETICS INC CYTK GAGE L PATRICK director 2,490 $14.65 $36,478.50 30,400 view
S 2017-10-02 2017-10-04 18:54:21 CYTOKINETICS INC CYTK GAGE L PATRICK director 300 $14.60 $4,380.00 32,890 view
S 2017-10-02 2017-10-04 18:54:21 CYTOKINETICS INC CYTK GAGE L PATRICK director 810 $14.55 $11,785.50 33,190 view
S 2017-10-02 2017-10-04 18:54:21 CYTOKINETICS INC CYTK GAGE L PATRICK director 600 $14.45 $8,670.00 34,000 view
S 2017-10-02 2017-10-04 18:54:21 CYTOKINETICS INC CYTK GAGE L PATRICK director 400 $14.40 $5,760.00 34,600 view
S 2017-10-02 2017-10-04 18:54:18 CYTOKINETICS INC CYTK Blum Robert I director officer (President & CEO) 300 $14.68 $4,402.50 69,885 view
S 2017-10-02 2017-10-04 18:54:18 CYTOKINETICS INC CYTK Blum Robert I director officer (President & CEO) 2,790 $14.65 $40,873.50 70,185 view
S 2017-10-02 2017-10-04 18:54:18 CYTOKINETICS INC CYTK Blum Robert I director officer (President & CEO) 100 $14.60 $1,460.00 72,975 view
S 2017-10-02 2017-10-04 18:54:18 CYTOKINETICS INC CYTK Blum Robert I director officer (President & CEO) 810 $14.55 $11,785.50 73,075 view
S 2017-10-02 2017-10-04 18:54:18 CYTOKINETICS INC CYTK Blum Robert I director officer (President & CEO) 700 $14.45 $10,115.00 73,885 view
S 2017-10-02 2017-10-04 18:54:18 CYTOKINETICS INC CYTK Blum Robert I director officer (President & CEO) 300 $14.40 $4,320.00 74,585 view
S 2017-09-06 2017-09-08 16:48:46 CYTOKINETICS INC CYTK McDowell Caryn Gordon officer (GC & Chief Compliance Officer) 707 $14.95 $10,569.70 18,469 N/A view
S 2017-09-06 2017-09-08 16:48:46 CYTOKINETICS INC CYTK McDowell Caryn Gordon officer (GC & Chief Compliance Officer) 400 $14.93 $5,970.00 19,176 N/A view
S 2017-09-06 2017-09-08 16:48:46 CYTOKINETICS INC CYTK McDowell Caryn Gordon officer (GC & Chief Compliance Officer) 600 $14.90 $8,940.00 19,576 N/A view
S 2017-09-06 2017-09-08 16:48:46 CYTOKINETICS INC CYTK McDowell Caryn Gordon officer (GC & Chief Compliance Officer) 724 $14.85 $10,751.40 20,176 N/A view
S 2017-09-06 2017-09-08 16:48:46 CYTOKINETICS INC CYTK McDowell Caryn Gordon officer (GC & Chief Compliance Officer) 100 $14.82 $1,482.50 20,900 N/A view
S 2017-09-06 2017-09-08 16:48:46 CYTOKINETICS INC CYTK McDowell Caryn Gordon officer (GC & Chief Compliance Officer) 400 $14.80 $5,920.00 21,000 N/A view
S 2017-09-06 2017-09-08 16:48:46 CYTOKINETICS INC CYTK McDowell Caryn Gordon officer (GC & Chief Compliance Officer) 400 $14.77 $5,910.00 21,400 N/A view
S 2017-09-06 2017-09-08 16:48:46 CYTOKINETICS INC CYTK McDowell Caryn Gordon officer (GC & Chief Compliance Officer) 600 $14.75 $8,850.00 21,800 N/A view
S 2017-09-06 2017-09-08 16:48:46 CYTOKINETICS INC CYTK McDowell Caryn Gordon officer (GC & Chief Compliance Officer) 200 $14.73 $2,945.00 22,400 N/A view
S 2017-09-06 2017-09-08 16:48:46 CYTOKINETICS INC CYTK McDowell Caryn Gordon officer (GC & Chief Compliance Officer) 500 $14.70 $7,350.00 22,600 N/A view
S 2017-09-06 2017-09-08 16:48:46 CYTOKINETICS INC CYTK McDowell Caryn Gordon officer (GC & Chief Compliance Officer) 200 $14.65 $2,930.00 23,100 N/A view
S 2017-09-06 2017-09-08 16:48:46 CYTOKINETICS INC CYTK McDowell Caryn Gordon officer (GC & Chief Compliance Officer) 300 $14.62 $4,387.50 23,300 N/A view
S 2017-09-06 2017-09-08 16:48:46 CYTOKINETICS INC CYTK McDowell Caryn Gordon officer (GC & Chief Compliance Officer) 700 $14.60 $10,220.00 23,600 N/A view
S 2017-09-06 2017-09-08 16:48:46 CYTOKINETICS INC CYTK McDowell Caryn Gordon officer (GC & Chief Compliance Officer) 200 $14.57 $2,915.00 24,300 N/A view
S 2017-09-06 2017-09-08 16:48:46 CYTOKINETICS INC CYTK McDowell Caryn Gordon officer (GC & Chief Compliance Officer) 200 $14.52 $2,905.00 24,500 N/A view
S 2017-09-06 2017-09-08 16:48:46 CYTOKINETICS INC CYTK McDowell Caryn Gordon officer (GC & Chief Compliance Officer) 200 $14.50 $2,900.00 24,700 N/A view
S 2017-09-06 2017-09-08 16:48:46 CYTOKINETICS INC CYTK McDowell Caryn Gordon officer (GC & Chief Compliance Officer) 200 $14.48 $2,895.00 24,900 N/A view
S 2017-09-06 2017-09-08 16:48:46 CYTOKINETICS INC CYTK McDowell Caryn Gordon officer (GC & Chief Compliance Officer) 600 $14.45 $8,670.00 25,100 N/A view
S 2017-09-06 2017-09-08 16:48:46 CYTOKINETICS INC CYTK McDowell Caryn Gordon officer (GC & Chief Compliance Officer) 400 $14.40 $5,760.00 25,700 N/A view
S 2017-09-06 2017-09-08 16:48:46 CYTOKINETICS INC CYTK McDowell Caryn Gordon officer (GC & Chief Compliance Officer) 200 $14.38 $2,875.00 26,100 N/A view
S 2017-09-06 2017-09-08 16:48:46 CYTOKINETICS INC CYTK McDowell Caryn Gordon officer (GC & Chief Compliance Officer) 200 $14.35 $2,870.00 26,300 N/A view
S 2017-09-06 2017-09-08 16:48:46 CYTOKINETICS INC CYTK McDowell Caryn Gordon officer (GC & Chief Compliance Officer) 302 $14.30 $4,318.60 26,500 N/A view
S 2017-09-06 2017-09-08 16:48:46 CYTOKINETICS INC CYTK McDowell Caryn Gordon officer (GC & Chief Compliance Officer) 100 $14.27 $1,427.50 26,802 N/A view
S 2017-09-06 2017-09-08 16:48:46 CYTOKINETICS INC CYTK McDowell Caryn Gordon officer (GC & Chief Compliance Officer) 400 $14.25 $5,700.00 26,902 N/A view
S 2017-09-06 2017-09-08 16:48:46 CYTOKINETICS INC CYTK McDowell Caryn Gordon officer (GC & Chief Compliance Officer) 898 $14.20 $12,751.60 27,302 N/A view
S 2017-09-06 2017-09-08 16:48:46 CYTOKINETICS INC CYTK McDowell Caryn Gordon officer (GC & Chief Compliance Officer) 200 $14.15 $2,830.00 22,468 N/A view
S 2017-09-06 2017-09-08 16:48:46 CYTOKINETICS INC CYTK McDowell Caryn Gordon officer (GC & Chief Compliance Officer) 200 $14.10 $2,820.00 19,601 N/A view
S 2017-09-06 2017-09-08 16:48:46 CYTOKINETICS INC CYTK McDowell Caryn Gordon officer (GC & Chief Compliance Officer) 100 $15.00 $1,500.00 18,369 N/A view
S 2017-09-01 2017-09-01 19:22:04 CYTOKINETICS INC CYTK GAGE L PATRICK director 400 $14.90 $5,960.00 30,000 N/A view
S 2017-09-01 2017-09-01 19:22:04 CYTOKINETICS INC CYTK GAGE L PATRICK director 700 $14.85 $10,395.00 30,400 N/A view
S 2017-09-01 2017-09-01 19:22:04 CYTOKINETICS INC CYTK GAGE L PATRICK director 500 $14.75 $7,375.00 31,100 N/A view
S 2017-09-01 2017-09-01 19:22:04 CYTOKINETICS INC CYTK GAGE L PATRICK director 500 $14.73 $7,362.50 31,600 N/A view
S 2017-09-01 2017-09-01 19:22:04 CYTOKINETICS INC CYTK GAGE L PATRICK director 900 $14.70 $13,230.00 32,100 N/A view
S 2017-09-01 2017-09-01 19:22:04 CYTOKINETICS INC CYTK GAGE L PATRICK director 600 $14.68 $8,805.00 33,000 N/A view
S 2017-09-01 2017-09-01 19:22:04 CYTOKINETICS INC CYTK GAGE L PATRICK director 1,100 $14.65 $16,115.00 33,600 N/A view
S 2017-09-01 2017-09-01 19:22:04 CYTOKINETICS INC CYTK GAGE L PATRICK director 300 $14.60 $4,380.00 34,700 N/A view
S 2017-09-01 2017-09-01 19:21:54 CYTOKINETICS INC CYTK Blum Robert I director officer (President & CEO) 100 $15.27 $1,527.50 74,885 N/A view
S 2017-09-01 2017-09-01 19:21:54 CYTOKINETICS INC CYTK Blum Robert I director officer (President & CEO) 400 $14.90 $5,960.00 74,985 N/A view
S 2017-09-01 2017-09-01 19:21:54 CYTOKINETICS INC CYTK Blum Robert I director officer (President & CEO) 200 $14.80 $2,960.00 75,385 N/A view
S 2017-09-01 2017-09-01 19:21:54 CYTOKINETICS INC CYTK Blum Robert I director officer (President & CEO) 100 $14.75 $1,475.00 75,585 N/A view
S 2017-09-01 2017-09-01 19:21:54 CYTOKINETICS INC CYTK Blum Robert I director officer (President & CEO) 300 $14.73 $4,417.50 75,685 N/A view
S 2017-09-01 2017-09-01 19:21:54 CYTOKINETICS INC CYTK Blum Robert I director officer (President & CEO) 1,300 $14.70 $19,110.00 75,985 N/A view
S 2017-09-01 2017-09-01 19:21:54 CYTOKINETICS INC CYTK Blum Robert I director officer (President & CEO) 800 $14.68 $11,740.00 77,285 N/A view
S 2017-09-01 2017-09-01 19:21:54 CYTOKINETICS INC CYTK Blum Robert I director officer (President & CEO) 1,200 $14.65 $17,580.00 78,085 N/A view
S 2017-09-01 2017-09-01 19:21:54 CYTOKINETICS INC CYTK Blum Robert I director officer (President & CEO) 100 $14.62 $1,462.50 79,285 N/A view
S 2017-09-01 2017-09-01 19:21:54 CYTOKINETICS INC CYTK Blum Robert I director officer (President & CEO) 400 $14.60 $5,840.00 79,385 N/A view
S 2017-09-01 2017-09-01 19:21:54 CYTOKINETICS INC CYTK Blum Robert I director officer (President & CEO) 100 $14.55 $1,455.00 79,785 N/A view
S 2017-08-31 2017-09-01 19:21:45 CYTOKINETICS INC CYTK COSTA SANTO J director 5,000 $15.00 $75,000.00 0 N/A view
S 2017-08-31 2017-09-01 19:21:25 CYTOKINETICS INC CYTK Morgan Bradley Paul officer (SVP Drug Discovery & Early Dev) 2,638 $15.00 $39,570.00 46,441 N/A view
S 2017-08-31 2017-09-01 19:21:25 CYTOKINETICS INC CYTK Morgan Bradley Paul officer (SVP Drug Discovery & Early Dev) 695 $15.00 $10,425.00 46,441 N/A view
S 2017-08-31 2017-09-01 19:21:25 CYTOKINETICS INC CYTK Morgan Bradley Paul officer (SVP Drug Discovery & Early Dev) 2,639 $15.00 $39,585.00 46,441 N/A view
S 2017-08-31 2017-09-01 19:21:25 CYTOKINETICS INC CYTK Morgan Bradley Paul officer (SVP Drug Discovery & Early Dev) 694 $15.00 $10,410.00 46,441 N/A view
S 2017-08-31 2017-09-01 19:21:25 CYTOKINETICS INC CYTK Morgan Bradley Paul officer (SVP Drug Discovery & Early Dev) 11,883 $15.00 $178,245.00 46,441 N/A view
S 2017-08-31 2017-09-01 19:21:25 CYTOKINETICS INC CYTK Morgan Bradley Paul officer (SVP Drug Discovery & Early Dev) 617 $15.00 $9,255.00 46,441 N/A view
S 2017-08-31 2017-09-01 19:21:25 CYTOKINETICS INC CYTK Morgan Bradley Paul officer (SVP Drug Discovery & Early Dev) 13,920 $15.00 $208,800.00 46,441 N/A view
S 2017-08-31 2017-09-01 19:21:25 CYTOKINETICS INC CYTK Morgan Bradley Paul officer (SVP Drug Discovery & Early Dev) 1,079 $15.00 $16,185.00 46,441 N/A view
S 2017-08-31 2017-09-01 19:21:25 CYTOKINETICS INC CYTK Morgan Bradley Paul officer (SVP Drug Discovery & Early Dev) 21,204 $15.00 $318,060.00 46,441 N/A view
S 2017-08-31 2017-09-01 19:21:25 CYTOKINETICS INC CYTK Morgan Bradley Paul officer (SVP Drug Discovery & Early Dev) 3,795 $15.00 $56,925.00 46,441 N/A view
S 2017-08-31 2017-09-01 19:21:25 CYTOKINETICS INC CYTK Morgan Bradley Paul officer (SVP Drug Discovery & Early Dev) 13,448 $15.00 $201,720.00 46,441 N/A view
S 2017-08-31 2017-09-01 19:21:25 CYTOKINETICS INC CYTK Morgan Bradley Paul officer (SVP Drug Discovery & Early Dev) 11,552 $15.00 $173,280.00 46,441 N/A view
S 2017-08-31 2017-09-01 19:21:25 CYTOKINETICS INC CYTK Morgan Bradley Paul officer (SVP Drug Discovery & Early Dev) 2,294 $15.00 $34,410.00 46,441 N/A view
S 2017-08-31 2017-09-01 19:21:25 CYTOKINETICS INC CYTK Morgan Bradley Paul officer (SVP Drug Discovery & Early Dev) 15,206 $15.00 $228,090.00 46,441 N/A view
S 2017-08-31 2017-09-01 19:21:25 CYTOKINETICS INC CYTK Morgan Bradley Paul officer (SVP Drug Discovery & Early Dev) 16,666 $15.00 $249,990.00 46,441 N/A view
S 2017-08-29 2017-08-30 19:30:15 CYTOKINETICS INC CYTK GAGE L PATRICK director 5,000 $14.00 $70,000.00 30,000 N/A view
S 2017-08-29 2017-08-30 19:30:05 CYTOKINETICS INC CYTK COSTA SANTO J director 5,000 $14.00 $70,000.00 0 N/A view
S 2017-08-08 2017-08-10 19:57:15 CYTOKINETICS INC CYTK McDowell Caryn Gordon officer (GC & Chief Compliance Officer) 1,810 $12.45 $22,534.50 18,369 N/A view
S 2017-08-08 2017-08-10 19:57:15 CYTOKINETICS INC CYTK McDowell Caryn Gordon officer (GC & Chief Compliance Officer) 200 $12.73 $2,545.00 20,179 N/A view
S 2017-08-08 2017-08-10 19:57:15 CYTOKINETICS INC CYTK McDowell Caryn Gordon officer (GC & Chief Compliance Officer) 538 $12.70 $6,832.60 20,379 N/A view
S 2017-08-08 2017-08-10 19:57:15 CYTOKINETICS INC CYTK McDowell Caryn Gordon officer (GC & Chief Compliance Officer) 500 $12.65 $6,325.00 20,917 N/A view
S 2017-08-08 2017-08-10 19:57:15 CYTOKINETICS INC CYTK McDowell Caryn Gordon officer (GC & Chief Compliance Officer) 700 $12.62 $8,837.50 21,417 N/A view
S 2017-08-08 2017-08-10 19:57:15 CYTOKINETICS INC CYTK McDowell Caryn Gordon officer (GC & Chief Compliance Officer) 300 $12.50 $3,750.00 22,117 N/A view
S 2017-08-08 2017-08-10 19:57:15 CYTOKINETICS INC CYTK McDowell Caryn Gordon officer (GC & Chief Compliance Officer) 200 $12.48 $2,495.00 22,417 N/A view
S 2017-08-08 2017-08-10 19:57:15 CYTOKINETICS INC CYTK McDowell Caryn Gordon officer (GC & Chief Compliance Officer) 2,300 $12.45 $28,635.00 22,617 N/A view
S 2017-08-08 2017-08-10 19:57:15 CYTOKINETICS INC CYTK McDowell Caryn Gordon officer (GC & Chief Compliance Officer) 800 $12.43 $9,940.00 24,917 N/A view
S 2017-08-08 2017-08-10 19:57:15 CYTOKINETICS INC CYTK McDowell Caryn Gordon officer (GC & Chief Compliance Officer) 3,200 $12.40 $39,680.00 25,717 N/A view
S 2017-08-08 2017-08-10 19:57:15 CYTOKINETICS INC CYTK McDowell Caryn Gordon officer (GC & Chief Compliance Officer) 500 $12.38 $6,187.50 23,506 N/A view
S 2017-08-08 2017-08-10 19:57:15 CYTOKINETICS INC CYTK McDowell Caryn Gordon officer (GC & Chief Compliance Officer) 300 $12.35 $3,705.00 21,270 N/A view
S 2017-08-01 2017-08-02 19:47:03 CYTOKINETICS INC CYTK Blum Robert I director officer (President & CEO) 177 $14.20 $2,513.40 79,885 N/A view
S 2017-08-01 2017-08-02 19:47:03 CYTOKINETICS INC CYTK Blum Robert I director officer (President & CEO) 405 $13.90 $5,629.50 80,062 N/A view
S 2017-08-01 2017-08-02 19:47:03 CYTOKINETICS INC CYTK Blum Robert I director officer (President & CEO) 500 $13.88 $6,937.50 80,467 N/A view
S 2017-08-01 2017-08-02 19:47:03 CYTOKINETICS INC CYTK Blum Robert I director officer (President & CEO) 695 $13.85 $9,625.75 80,967 N/A view
S 2017-08-01 2017-08-02 19:47:03 CYTOKINETICS INC CYTK Blum Robert I director officer (President & CEO) 100 $13.82 $1,382.50 81,662 N/A view
S 2017-08-01 2017-08-02 19:47:03 CYTOKINETICS INC CYTK Blum Robert I director officer (President & CEO) 1,123 $13.80 $15,497.40 81,762 N/A view
S 2017-08-01 2017-08-02 19:47:03 CYTOKINETICS INC CYTK Blum Robert I director officer (President & CEO) 300 $13.75 $4,125.00 82,885 N/A view
S 2017-08-01 2017-08-02 19:47:03 CYTOKINETICS INC CYTK Blum Robert I director officer (President & CEO) 900 $13.70 $12,330.00 83,185 N/A view
S 2017-08-01 2017-08-02 19:47:03 CYTOKINETICS INC CYTK Blum Robert I director officer (President & CEO) 100 $13.68 $1,367.50 84,085 N/A view
S 2017-08-01 2017-08-02 19:47:03 CYTOKINETICS INC CYTK Blum Robert I director officer (President & CEO) 500 $13.65 $6,825.00 84,185 N/A view
S 2017-08-01 2017-08-02 19:47:03 CYTOKINETICS INC CYTK Blum Robert I director officer (President & CEO) 100 $13.60 $1,360.00 84,685 N/A view
S 2017-08-01 2017-08-02 19:47:03 CYTOKINETICS INC CYTK Blum Robert I director officer (President & CEO) 100 $13.55 $1,355.00 84,785 N/A view
S 2017-07-03 2017-07-05 21:45:47 CYTOKINETICS INC CYTK Blum Robert I director officer (President & CEO) 309 $12.20 $3,769.80 84,885 N/A view
S 2017-07-03 2017-07-05 21:45:47 CYTOKINETICS INC CYTK Blum Robert I director officer (President & CEO) 100 $12.18 $1,217.50 85,194 N/A view
S 2017-07-03 2017-07-05 21:45:47 CYTOKINETICS INC CYTK Blum Robert I director officer (President & CEO) 3,091 $12.15 $37,555.60 85,294 N/A view
S 2017-07-03 2017-07-05 21:45:47 CYTOKINETICS INC CYTK Blum Robert I director officer (President & CEO) 1,500 $12.10 $18,150.00 88,385 N/A view
S 2017-06-01 2017-06-02 17:54:20 CYTOKINETICS INC CYTK Blum Robert I director officer (President & CEO) 100 $13.85 $1,385.00 89,885 N/A view
S 2017-06-01 2017-06-02 17:54:20 CYTOKINETICS INC CYTK Blum Robert I director officer (President & CEO) 400 $13.80 $5,520.00 89,985 N/A view
S 2017-06-01 2017-06-02 17:54:20 CYTOKINETICS INC CYTK Blum Robert I director officer (President & CEO) 800 $13.75 $11,000.00 90,385 N/A view
S 2017-06-01 2017-06-02 17:54:20 CYTOKINETICS INC CYTK Blum Robert I director officer (President & CEO) 200 $13.70 $2,740.00 91,185 N/A view
S 2017-06-01 2017-06-02 17:54:20 CYTOKINETICS INC CYTK Blum Robert I director officer (President & CEO) 700 $13.65 $9,555.00 91,385 N/A view
S 2017-06-01 2017-06-02 17:54:20 CYTOKINETICS INC CYTK Blum Robert I director officer (President & CEO) 800 $13.60 $10,880.00 92,085 N/A view
S 2017-06-01 2017-06-02 17:54:20 CYTOKINETICS INC CYTK Blum Robert I director officer (President & CEO) 932 $13.55 $12,628.60 92,885 N/A view
S 2017-06-01 2017-06-02 17:54:20 CYTOKINETICS INC CYTK Blum Robert I director officer (President & CEO) 500 $13.50 $6,750.00 93,817 N/A view
S 2017-06-01 2017-06-02 17:54:20 CYTOKINETICS INC CYTK Blum Robert I director officer (President & CEO) 468 $13.45 $6,294.60 94,317 N/A view
S 2017-06-01 2017-06-02 17:54:20 CYTOKINETICS INC CYTK Blum Robert I director officer (President & CEO) 100 $13.40 $1,340.00 94,785 N/A view
S 2016-12-29 2016-12-30 16:28:35 CYTOKINETICS INC CYTK Malik Fady Ibraham officer (EVP Research & Development) 1,326 $12.52 $16,600.20 35 N/A view
S 2016-12-28 2016-12-30 16:28:35 CYTOKINETICS INC CYTK Malik Fady Ibraham officer (EVP Research & Development) 1,800 $12.32 $22,182.50 1,361 N/A view
S 2016-12-28 2016-12-30 16:28:35 CYTOKINETICS INC CYTK Malik Fady Ibraham officer (EVP Research & Development) 200 $12.31 $2,461.00 3,161 N/A view
S 2016-12-28 2016-12-30 16:28:35 CYTOKINETICS INC CYTK Malik Fady Ibraham officer (EVP Research & Development) 2,307 $12.31 $28,399.20 3,361 N/A view
P 2015-08-31 2015-09-01 20:26:49 CYTOKINETICS INC CYTK GAGE L PATRICK director 1,000 $6.95 $6,950.00 1,850 N/A view
P 2015-08-20 2015-08-21 19:44:02 CYTOKINETICS INC CYTK GAGE L PATRICK director 200 $6.47 $1,295.00 30,000 N/A view
P 2015-08-20 2015-08-21 19:44:02 CYTOKINETICS INC CYTK GAGE L PATRICK director 700 $6.59 $4,616.50 29,800 N/A view
P 2015-08-20 2015-08-21 19:44:02 CYTOKINETICS INC CYTK GAGE L PATRICK director 4,980 $6.60 $32,868.00 29,100 N/A view
P 2015-08-20 2015-08-21 19:44:02 CYTOKINETICS INC CYTK GAGE L PATRICK director 420 $6.46 $2,713.20 24,120 N/A view
P 2015-08-20 2015-08-21 19:44:02 CYTOKINETICS INC CYTK GAGE L PATRICK director 300 $6.59 $1,977.00 23,700 N/A view
P 2015-08-20 2015-08-21 19:44:02 CYTOKINETICS INC CYTK GAGE L PATRICK director 700 $6.50 $4,550.00 23,400 N/A view
P 2015-08-20 2015-08-21 19:44:02 CYTOKINETICS INC CYTK GAGE L PATRICK director 100 $6.46 $646.25 22,700 N/A view
P 2015-08-20 2015-08-21 19:44:02 CYTOKINETICS INC CYTK GAGE L PATRICK director 900 $6.47 $5,818.50 22,600 N/A view
P 2015-08-20 2015-08-21 19:44:02 CYTOKINETICS INC CYTK GAGE L PATRICK director 600 $6.48 $3,888.00 21,700 N/A view
P 2015-08-20 2015-08-21 19:44:02 CYTOKINETICS INC CYTK GAGE L PATRICK director 1,100 $6.47 $7,117.00 21,100 N/A view
P 2015-05-06 2015-05-08 15:52:41 CYTOKINETICS INC CYTK GAGE L PATRICK director 1,192 $5.69 $6,782.48 20,000 N/A view
P 2015-05-06 2015-05-08 15:52:41 CYTOKINETICS INC CYTK GAGE L PATRICK director 3,808 $5.71 $21,743.30 18,808 N/A view
P 2015-05-06 2015-05-08 15:52:41 CYTOKINETICS INC CYTK GAGE L PATRICK director 200 $5.71 $1,142.00 15,000 N/A view
P 2015-05-06 2015-05-08 15:52:41 CYTOKINETICS INC CYTK GAGE L PATRICK director 4,800 $5.72 $27,456.00 14,800 N/A view
S 2015-03-11 2015-03-13 14:43:52 CYTOKINETICS INC CYTK WOLFF ANDREW A officer (SVP & CMO) 1,345 $7.80 $10,491.00 21,261 6.92% view
S 2015-03-11 2015-03-13 14:43:52 CYTOKINETICS INC CYTK WOLFF ANDREW A officer (SVP & CMO) 1,040 $7.81 $8,122.40 22,606 7.04% view
S 2015-03-11 2015-03-13 14:43:52 CYTOKINETICS INC CYTK WOLFF ANDREW A officer (SVP & CMO) 19,390 $7.80 $151,242.00 23,646 6.92% view
S 2015-03-11 2015-03-13 14:43:52 CYTOKINETICS INC CYTK WOLFF ANDREW A officer (SVP & CMO) 100 $7.83 $783.00 23,646 7.28% view
S 2014-12-30 2014-12-31 17:19:36 CYTOKINETICS INC CYTK Malik Fady Ibraham officer (SVP Research & Development) 500 $6.76 $3,380.00 3,361 -4.88% view
S 2014-12-30 2014-12-31 17:19:36 CYTOKINETICS INC CYTK Malik Fady Ibraham officer (SVP Research & Development) 3,285 $6.75 $22,174.10 3,861 -5.04% view
S 2014-12-30 2014-12-31 17:19:36 CYTOKINETICS INC CYTK Malik Fady Ibraham officer (SVP Research & Development) 611 $6.75 $4,124.25 7,146 -5.04% view
S 2014-12-30 2014-12-31 17:19:36 CYTOKINETICS INC CYTK Malik Fady Ibraham officer (SVP Research & Development) 1,329 $6.74 $8,957.46 7,757 -5.19% view
S 2014-12-30 2014-12-31 17:19:36 CYTOKINETICS INC CYTK Malik Fady Ibraham officer (SVP Research & Development) 15,905 $6.73 $107,041.00 9,086 -5.35% view
P 2014-05-09 2014-05-12 20:34:05 CYTOKINETICS INC CYTK GAGE L PATRICK director 850 $4.10 $3,485.00 850 20.49% view
P 2014-05-09 2014-05-12 20:34:05 CYTOKINETICS INC CYTK GAGE L PATRICK director 10,000 $4.09 $40,892.00 10,000 20.81% view
P* 2014-02-25 2014-02-27 15:33:55 CYTOKINETICS INC CYTK DART KENNETH BRYAN various various 10% owner 500,000 $8.00 $4,000,000.00 2,883,840 12.25% view
S 2012-11-14 2012-11-16 16:23:21 CYTOKINETICS INC CYTK DOW STEPHEN M director 1,742,950 $0.61 $1,063,370.00 1,421,050 -9.82% view
S 2010-06-03 2010-06-04 16:33:19 CYTOKINETICS INC CYTK Sabry James H other 300 $2.97 $891.00 0 23.23% view
S 2010-06-03 2010-06-04 16:33:19 CYTOKINETICS INC CYTK Sabry James H other 1,100 $2.96 $3,256.00 300 22.97% view
S 2010-06-03 2010-06-04 16:33:19 CYTOKINETICS INC CYTK Sabry James H other 3,348 $2.95 $9,876.60 1,400 22.71% view
S 2010-06-03 2010-06-04 16:33:19 CYTOKINETICS INC CYTK Sabry James H other 675 $2.94 $1,987.88 4,748 22.58% view
S 2010-06-03 2010-06-04 16:33:19 CYTOKINETICS INC CYTK Sabry James H other 4,877 $2.94 $14,338.40 5,423 22.45% view
S 2010-06-03 2010-06-04 16:33:19 CYTOKINETICS INC CYTK Sabry James H other 1,600 $2.91 $4,656.00 10,300 21.65% view
S 2010-06-03 2010-06-04 16:33:19 CYTOKINETICS INC CYTK Sabry James H other 9,500 $2.90 $27,550.00 11,900 21.38% view
S 2010-06-03 2010-06-04 16:33:19 CYTOKINETICS INC CYTK Sabry James H other 200 $2.89 $579.00 21,400 21.24% view
S 2010-06-03 2010-06-04 16:33:19 CYTOKINETICS INC CYTK Sabry James H other 1,505 $2.89 $4,349.45 21,600 21.11% view
S 2010-06-03 2010-06-04 16:33:19 CYTOKINETICS INC CYTK Sabry James H other 1,595 $2.88 $4,593.60 23,105 20.83% view
S 2010-06-03 2010-06-04 16:33:19 CYTOKINETICS INC CYTK Sabry James H other 100 $2.87 $287.00 24,700 20.56% view
S 2010-06-03 2010-06-04 16:33:19 CYTOKINETICS INC CYTK Sabry James H other 100 $2.86 $286.00 24,800 20.28% view
S 2010-06-03 2010-06-04 16:33:19 CYTOKINETICS INC CYTK Sabry James H other 100 $2.85 $285.00 24,900 20.00% view
S 2010-06-03 2010-06-04 16:11:17 CYTOKINETICS INC CYTK SCHMERTZLER MICHAEL director 5,382 $3.00 $16,146.00 4,340,920 24.00% view
S 2010-05-27 2010-05-28 11:45:26 CYTOKINETICS INC CYTK SCHMERTZLER MICHAEL director 57,608 $3.00 $172,824.00 4,346,300 8.67% view
S 2010-05-19 2010-05-20 16:17:00 CYTOKINETICS INC CYTK SCHMERTZLER MICHAEL director 16,239 $3.00 $48,717.00 4,403,910 6.67% view
S 2010-05-18 2010-05-20 14:46:34 CYTOKINETICS INC CYTK Sabry James H other 1,000 $3.07 $3,070.00 0 8.79% view
S 2010-05-18 2010-05-20 14:46:34 CYTOKINETICS INC CYTK Sabry James H other 700 $3.06 $2,142.00 1,000 8.50% view
S 2010-05-18 2010-05-20 14:46:34 CYTOKINETICS INC CYTK Sabry James H other 848 $3.05 $2,586.40 1,700 8.20% view
S 2010-05-18 2010-05-20 14:46:34 CYTOKINETICS INC CYTK Sabry James H other 454 $3.04 $1,380.16 2,548 7.89% view
S 2010-05-18 2010-05-20 14:46:34 CYTOKINETICS INC CYTK Sabry James H other 100 $3.04 $303.50 3,002 7.74% view
S 2010-05-18 2010-05-20 14:46:34 CYTOKINETICS INC CYTK Sabry James H other 1,433 $3.03 $4,341.99 3,102 7.59% view
S 2010-05-18 2010-05-20 14:46:34 CYTOKINETICS INC CYTK Sabry James H other 300 $3.03 $907.50 4,535 7.44% view
S 2010-05-18 2010-05-20 14:46:34 CYTOKINETICS INC CYTK Sabry James H other 2,365 $3.02 $7,142.30 4,835 7.28% view
S 2010-05-18 2010-05-20 14:46:34 CYTOKINETICS INC CYTK Sabry James H other 400 $3.02 $1,206.00 7,200 7.13% view
S 2010-05-18 2010-05-20 14:46:34 CYTOKINETICS INC CYTK Sabry James H other 1,900 $3.01 $5,719.00 7,600 6.98% view
S 2010-05-18 2010-05-20 14:46:34 CYTOKINETICS INC CYTK Sabry James H other 100 $3.01 $300.50 9,500 6.82% view
S 2010-05-18 2010-05-20 14:46:34 CYTOKINETICS INC CYTK Sabry James H other 9,300 $3.00 $27,900.00 9,600 6.67% view
S 2010-05-18 2010-05-20 14:46:34 CYTOKINETICS INC CYTK Sabry James H other 3,400 $2.99 $10,183.00 18,900 6.51% view
S 2010-05-18 2010-05-20 14:46:34 CYTOKINETICS INC CYTK Sabry James H other 500 $2.99 $1,496.25 22,300 6.43% view
S 2010-05-18 2010-05-20 14:46:34 CYTOKINETICS INC CYTK Sabry James H other 1,600 $2.99 $4,784.00 22,800 6.35% view
S 2010-05-18 2010-05-20 14:46:34 CYTOKINETICS INC CYTK Sabry James H other 100 $2.98 $298.50 24,400 6.20% view
S 2010-05-18 2010-05-20 14:46:34 CYTOKINETICS INC CYTK Sabry James H other 300 $2.98 $894.00 24,500 6.04% view
S 2010-05-18 2010-05-20 14:46:34 CYTOKINETICS INC CYTK Sabry James H other 200 $2.97 $595.00 24,800 5.88% view
S 2010-05-18 2010-05-19 16:16:37 CYTOKINETICS INC CYTK SCHMERTZLER MICHAEL director 414,588 $3.00 $1,243,760.00 4,420,150 6.67% view
S 2010-05-12 2010-05-14 12:50:31 CYTOKINETICS INC CYTK Sabry James H other 10,000 $3.00 $30,000.00 0 7.33% view
S 2010-05-12 2010-05-13 16:28:47 CYTOKINETICS INC CYTK SCHMERTZLER MICHAEL director 82,738 $3.00 $248,214.00 4,834,740 7.33% view
S 2010-05-11 2010-05-13 16:22:03 CYTOKINETICS INC CYTK SCHMERTZLER MICHAEL director 36,500 $3.00 $109,500.00 4,917,480 7.33% view
S 2010-05-06 2010-05-07 13:59:38 CYTOKINETICS INC CYTK SCHMERTZLER MICHAEL director 33,446 $3.03 $101,341.00 4,953,980 7.59% view
S 2010-05-05 2010-05-07 13:51:09 CYTOKINETICS INC CYTK SCHMERTZLER MICHAEL director 402,100 $3.04 $1,222,380.00 4,987,420 7.89% view
S 2010-04-26 2010-04-28 14:15:33 CYTOKINETICS INC CYTK Sabry James H other 1,000 $3.17 $3,170.00 0 9.46% view
S 2010-04-26 2010-04-28 14:15:33 CYTOKINETICS INC CYTK Sabry James H other 941 $3.16 $2,973.56 1,000 9.18% view
S 2010-04-26 2010-04-28 14:15:33 CYTOKINETICS INC CYTK Sabry James H other 759 $3.19 $2,421.21 1,941 10.03% view
S 2010-04-26 2010-04-28 14:15:33 CYTOKINETICS INC CYTK Sabry James H other 7,300 $3.18 $23,214.00 2,700 9.75% view
S 2010-03-31 2010-04-01 16:31:07 CYTOKINETICS INC CYTK Sabry James H other 1,000 $3.24 $3,242.50 0 0.69% view
S 2010-03-31 2010-04-01 16:31:07 CYTOKINETICS INC CYTK Sabry James H other 2,300 $3.24 $7,452.00 1,000 0.62% view
S 2010-03-31 2010-04-01 16:31:07 CYTOKINETICS INC CYTK Sabry James H other 300 $3.23 $970.50 3,300 0.46% view
S 2010-03-31 2010-04-01 16:31:07 CYTOKINETICS INC CYTK Sabry James H other 4,800 $3.23 $15,504.00 3,600 0.31% view
S 2010-03-31 2010-04-01 16:31:07 CYTOKINETICS INC CYTK Sabry James H other 1,600 $3.22 $5,152.00 8,400 0.00% view
S 2010-02-18 2010-02-22 19:14:39 CYTOKINETICS INC CYTK Blum Robert I director officer (President & CEO) 500 $3.14 $1,570.00 18,416 -5.73% view
S 2010-02-11 2010-02-12 20:03:26 CYTOKINETICS INC CYTK Blum Robert I director officer (President & CEO) 500 $2.96 $1,480.00 18,416 -13.51% view
S 2010-01-19 2010-01-21 15:54:09 CYTOKINETICS INC CYTK Blum Robert I director officer (President & CEO) 500 $3.34 $1,670.00 18,416 6.89% view
S 2010-01-05 2010-01-07 10:23:27 CYTOKINETICS INC CYTK Blum Robert I director officer (President & CEO) 500 $3.11 $1,555.00 18,416 3.22% view
S 2009-12-15 2009-12-17 16:17:12 CYTOKINETICS INC CYTK Blum Robert I director officer (President & CEO) 500 $3.05 $1,525.00 18,416 -8.85% view
S 2009-12-16 2009-12-17 16:17:12 CYTOKINETICS INC CYTK Sabry James H director 1,600 $3.04 $4,864.00 500 -9.21% view
S 2009-12-16 2009-12-17 16:17:12 CYTOKINETICS INC CYTK Sabry James H director 2,504 $3.03 $7,587.12 2,100 -9.57% view
S 2009-12-16 2009-12-17 16:17:12 CYTOKINETICS INC CYTK Sabry James H director 1,000 $3.02 $3,020.00 4,604 -9.93% view
S 2009-12-16 2009-12-17 16:17:12 CYTOKINETICS INC CYTK Sabry James H director 1,696 $3.01 $5,104.96 5,604 -10.30% view
S 2009-12-16 2009-12-17 16:17:12 CYTOKINETICS INC CYTK Sabry James H director 2,584 $3.00 $7,752.00 7,300 -10.67% view
S 2009-12-16 2009-12-17 16:17:12 CYTOKINETICS INC CYTK Sabry James H director 2,566 $2.99 $7,672.34 9,884 -11.04% view
S 2009-12-16 2009-12-17 16:17:12 CYTOKINETICS INC CYTK Sabry James H director 1,050 $2.98 $3,129.00 12,450 -11.41% view
S 2009-12-16 2009-12-17 16:17:12 CYTOKINETICS INC CYTK Sabry James H director 2,300 $2.97 $6,831.00 13,500 -11.78% view
S 2009-12-16 2009-12-17 16:17:12 CYTOKINETICS INC CYTK Sabry James H director 4,000 $2.96 $11,840.00 15,800 -12.16% view
S 2009-12-16 2009-12-17 16:17:12 CYTOKINETICS INC CYTK Sabry James H director 200 $2.95 $590.00 19,800 -12.54% view
S 2009-12-15 2009-12-17 16:17:12 CYTOKINETICS INC CYTK Sabry James H director 300 $3.13 $939.00 0 -6.07% view
S 2009-12-15 2009-12-17 16:17:12 CYTOKINETICS INC CYTK Sabry James H director 1,866 $3.12 $5,821.92 300 -6.41% view
S 2009-12-15 2009-12-17 16:17:12 CYTOKINETICS INC CYTK Sabry James H director 1,700 $3.11 $5,287.00 2,166 -6.75% view
S 2009-12-15 2009-12-17 16:17:12 CYTOKINETICS INC CYTK Sabry James H director 3,000 $3.10 $9,300.00 3,866 -7.10% view
S 2009-12-15 2009-12-17 16:17:12 CYTOKINETICS INC CYTK Sabry James H director 3,634 $3.09 $11,229.10 6,866 -7.44% view
S 2009-12-15 2009-12-17 16:17:12 CYTOKINETICS INC CYTK Sabry James H director 3,000 $3.08 $9,240.00 10,500 -7.79% view
S 2009-12-15 2009-12-17 16:17:12 CYTOKINETICS INC CYTK Sabry James H director 4,044 $3.07 $12,415.10 13,500 -8.14% view
S 2009-12-15 2009-12-17 16:17:12 CYTOKINETICS INC CYTK Sabry James H director 2,356 $3.06 $7,209.36 17,544 -8.50% view
S 2009-12-15 2009-12-17 16:17:12 CYTOKINETICS INC CYTK Sabry James H director 200 $3.06 $612.50 19,900 -8.41% view
S 2009-12-15 2009-12-17 16:17:12 CYTOKINETICS INC CYTK Sabry James H director 300 $3.06 $916.50 20,100 -8.67% view
S 2009-12-15 2009-12-17 16:17:12 CYTOKINETICS INC CYTK Sabry James H director 500 $3.05 $1,526.25 20,400 -8.76% view
S 2009-12-15 2009-12-17 16:17:12 CYTOKINETICS INC CYTK Sabry James H director 7,100 $3.05 $21,655.00 20,900 -8.85% view
S 2009-12-15 2009-12-17 16:17:12 CYTOKINETICS INC CYTK Sabry James H director 1,500 $3.04 $4,560.00 28,000 -9.21% view
S 2009-12-15 2009-12-17 16:17:12 CYTOKINETICS INC CYTK Sabry James H director 200 $3.03 $606.00 29,500 -9.57% view
S 2009-12-15 2009-12-17 16:17:12 CYTOKINETICS INC CYTK Sabry James H director 1,400 $3.02 $4,228.00 29,700 -9.93% view
S 2009-12-15 2009-12-17 16:17:12 CYTOKINETICS INC CYTK Sabry James H director 2,500 $3.01 $7,525.00 31,100 -10.30% view
S 2009-12-15 2009-12-17 16:17:12 CYTOKINETICS INC CYTK Sabry James H director 900 $3.00 $2,700.00 33,600 -10.67% view
S 2009-12-16 2009-12-17 16:17:11 CYTOKINETICS INC CYTK Sabry James H director 500 $3.09 $1,545.00 0 -7.44% view
S 2009-12-02 2009-12-04 11:21:32 CYTOKINETICS INC CYTK Sabry James H director 500 $3.17 $1,585.00 0 8.20% view
S 2009-12-02 2009-12-04 11:21:32 CYTOKINETICS INC CYTK Sabry James H director 200 $3.16 $633.00 500 8.06% view
S 2009-12-02 2009-12-04 11:21:32 CYTOKINETICS INC CYTK Sabry James H director 700 $3.16 $2,212.00 700 7.91% view
S 2009-12-02 2009-12-04 11:21:32 CYTOKINETICS INC CYTK Sabry James H director 100 $3.15 $315.50 1,400 7.77% view
S 2009-12-02 2009-12-04 11:21:32 CYTOKINETICS INC CYTK Sabry James H director 2,400 $3.15 $7,560.00 1,500 7.62% view
S 2009-12-02 2009-12-04 11:21:32 CYTOKINETICS INC CYTK Sabry James H director 300 $3.14 $943.50 3,900 7.47% view
S 2009-12-02 2009-12-04 11:21:32 CYTOKINETICS INC CYTK Sabry James H director 9,899 $3.14 $31,082.90 4,200 7.32% view
S 2009-12-02 2009-12-04 11:21:32 CYTOKINETICS INC CYTK Sabry James H director 200 $3.14 $627.50 14,099 7.25% view
S 2009-12-02 2009-12-04 11:21:32 CYTOKINETICS INC CYTK Sabry James H director 600 $3.13 $1,881.00 14,299 7.18% view
S 2009-12-02 2009-12-04 11:21:32 CYTOKINETICS INC CYTK Sabry James H director 22,538 $3.13 $70,543.90 14,899 7.03% view
S 2009-12-02 2009-12-04 11:21:32 CYTOKINETICS INC CYTK Sabry James H director 11,436 $3.12 $35,680.30 37,437 6.73% view
S 2009-12-02 2009-12-04 11:21:23 CYTOKINETICS INC CYTK Sabry James H director 33 $3.11 $102.63 48,873 6.43% view
S 2009-12-01 2009-12-03 16:06:33 CYTOKINETICS INC CYTK Blum Robert I director officer (President & CEO) 500 $3.12 $1,560.00 18,416 6.73% view
S 2009-11-24 2009-11-25 12:14:41 CYTOKINETICS INC CYTK Blum Robert I director officer (President & CEO) 500 $3.47 $1,735.00 18,416 18.16% view
S 2009-11-17 2009-11-18 17:46:04 CYTOKINETICS INC CYTK Sabry James H director 1,000 $3.42 $3,420.00 0 16.96% view
S 2009-11-17 2009-11-18 17:46:04 CYTOKINETICS INC CYTK Sabry James H director 500 $3.50 $1,750.00 1,000 18.86% view
S 2009-11-17 2009-11-18 17:46:04 CYTOKINETICS INC CYTK Sabry James H director 1,700 $3.47 $5,899.00 1,500 18.16% view
S 2009-11-17 2009-11-18 17:46:04 CYTOKINETICS INC CYTK Sabry James H director 5,610 $3.46 $19,410.60 3,200 17.92% view
S 2009-11-17 2009-11-18 17:46:04 CYTOKINETICS INC CYTK Sabry James H director 13,964 $3.45 $48,175.80 8,810 17.68% view
S 2009-11-17 2009-11-18 17:46:04 CYTOKINETICS INC CYTK Sabry James H director 17,151 $3.44 $58,999.40 22,774 17.44% view
S 2009-11-17 2009-11-18 17:46:04 CYTOKINETICS INC CYTK Sabry James H director 8,875 $3.43 $30,441.20 39,925 17.20% view
S 2009-11-16 2009-11-17 18:32:11 CYTOKINETICS INC CYTK Sabry James H director 5,240 $3.45 $18,078.00 0 13.04% view
S 2009-11-16 2009-11-17 18:32:11 CYTOKINETICS INC CYTK Sabry James H director 5,066 $3.44 $17,427.00 5,240 12.79% view
S 2009-11-16 2009-11-17 18:32:11 CYTOKINETICS INC CYTK Sabry James H director 8,594 $3.43 $29,477.40 10,306 12.54% view
S 2009-11-16 2009-11-17 18:32:11 CYTOKINETICS INC CYTK Sabry James H director 31,306 $3.42 $107,067.00 18,900 12.28% view
S 2009-11-16 2009-11-17 18:32:11 CYTOKINETICS INC CYTK Sabry James H director 400 $3.41 $1,366.00 50,206 12.15% view
S 2009-11-16 2009-11-17 18:32:11 CYTOKINETICS INC CYTK Sabry James H director 8,498 $3.41 $28,978.20 50,606 12.02% view
S 2009-11-16 2009-11-17 18:32:11 CYTOKINETICS INC CYTK Sabry James H director 6,255 $3.40 $21,267.00 59,104 11.76% view
S 2009-11-16 2009-11-17 18:32:11 CYTOKINETICS INC CYTK Sabry James H director 541 $3.39 $1,833.99 65,359 11.50% view
S 2009-11-16 2009-11-17 18:32:11 CYTOKINETICS INC CYTK Sabry James H director 100 $3.38 $338.00 50,167 11.24% view
S 2009-11-13 2009-11-17 18:32:11 CYTOKINETICS INC CYTK Sabry James H director 496 $3.37 $1,671.52 0 9.20% view
S 2009-11-13 2009-11-17 18:32:11 CYTOKINETICS INC CYTK Sabry James H director 1,504 $3.36 $5,053.44 496 8.93% view
S 2009-11-13 2009-11-17 18:32:11 CYTOKINETICS INC CYTK Sabry James H director 23,500 $3.35 $78,725.00 2,000 8.66% view
S 2009-11-13 2009-11-17 18:32:11 CYTOKINETICS INC CYTK Sabry James H director 10,440 $3.34 $34,869.60 25,500 8.38% view
S 2009-11-13 2009-11-17 18:32:11 CYTOKINETICS INC CYTK Sabry James H director 1,700 $3.36 $5,712.00 0 8.93% view
S 2009-11-13 2009-11-17 18:32:11 CYTOKINETICS INC CYTK Sabry James H director 19,500 $3.35 $65,325.00 1,700 8.66% view
S 2009-11-13 2009-11-17 18:32:11 CYTOKINETICS INC CYTK Sabry James H director 9,060 $3.34 $30,260.40 21,200 8.38% view
S 2009-11-10 2009-11-12 17:41:16 CYTOKINETICS INC CYTK Blum Robert I director officer (President & CEO) 500 $3.24 $1,620.00 22,460 7.72% view
S 2009-10-22 2009-10-23 18:06:19 CYTOKINETICS INC CYTK Blum Robert I director officer (President & CEO) 500 $4.77 $2,385.00 22,460 28.72% view
S 2009-10-08 2009-10-09 20:40:50 CYTOKINETICS INC CYTK Blum Robert I director officer (President & CEO) 500 $4.85 $2,425.00 22,460 32.58% view
S 2009-10-01 2009-10-02 12:07:29 CYTOKINETICS INC CYTK MORGANS DAVID J JR officer (EVP-Preclinical R&D) 200 $5.24 $1,048.00 42,000 39.12% view
S 2009-10-01 2009-10-02 12:07:29 CYTOKINETICS INC CYTK MORGANS DAVID J JR officer (EVP-Preclinical R&D) 200 $5.23 $1,046.00 42,200 39.01% view
S 2009-10-01 2009-10-02 12:07:29 CYTOKINETICS INC CYTK MORGANS DAVID J JR officer (EVP-Preclinical R&D) 1,400 $5.22 $7,308.00 42,400 38.89% view
S 2009-10-01 2009-10-02 12:07:29 CYTOKINETICS INC CYTK MORGANS DAVID J JR officer (EVP-Preclinical R&D) 534 $5.20 $2,776.80 43,800 38.65% view
S 2009-10-01 2009-10-02 12:07:29 CYTOKINETICS INC CYTK MORGANS DAVID J JR officer (EVP-Preclinical R&D) 4,400 $5.19 $22,836.00 44,334 38.54% view
S 2009-10-01 2009-10-02 12:07:29 CYTOKINETICS INC CYTK MORGANS DAVID J JR officer (EVP-Preclinical R&D) 766 $5.17 $3,960.22 48,734 38.30% view
S 2009-09-28 2009-09-29 11:59:44 CYTOKINETICS INC CYTK MORGANS DAVID J JR officer (EVP-Preclinical R&D) 2,500 $5.50 $13,750.00 49,500 22.36% view
S 2009-09-24 2009-09-25 17:24:38 CYTOKINETICS INC CYTK Blum Robert I director officer (President & CEO) 500 $4.62 $2,310.00 22,460 1.08% view
S 2009-09-21 2009-09-22 11:53:10 CYTOKINETICS INC CYTK MORGANS DAVID J JR officer (EVP-Preclinical R&D) 2,500 $5.00 $12,500.00 52,000 4.40% view
S 2009-09-21 2009-09-22 11:53:10 CYTOKINETICS INC CYTK MORGANS DAVID J JR officer (EVP-Preclinical R&D) 100 $4.78 $478.01 54,500 0.00% view
S 2009-09-21 2009-09-22 11:53:10 CYTOKINETICS INC CYTK MORGANS DAVID J JR officer (EVP-Preclinical R&D) 400 $4.77 $1,908.04 54,600 -0.21% view
S 2009-09-21 2009-09-22 11:53:10 CYTOKINETICS INC CYTK MORGANS DAVID J JR officer (EVP-Preclinical R&D) 100 $4.77 $477.00 55,000 -0.21% view
S 2009-09-21 2009-09-22 11:53:10 CYTOKINETICS INC CYTK MORGANS DAVID J JR officer (EVP-Preclinical R&D) 300 $4.76 $1,428.60 55,100 -0.38% view
S 2009-09-21 2009-09-22 11:53:10 CYTOKINETICS INC CYTK MORGANS DAVID J JR officer (EVP-Preclinical R&D) 1,200 $4.76 $5,712.12 55,400 -0.42% view
S 2009-09-21 2009-09-22 11:53:10 CYTOKINETICS INC CYTK MORGANS DAVID J JR officer (EVP-Preclinical R&D) 500 $4.75 $2,375.05 56,600 -0.63% view
S 2009-09-21 2009-09-22 11:53:10 CYTOKINETICS INC CYTK MORGANS DAVID J JR officer (EVP-Preclinical R&D) 400 $4.75 $1,900.00 57,100 -0.63% view
S 2009-09-21 2009-09-22 11:53:10 CYTOKINETICS INC CYTK MORGANS DAVID J JR officer (EVP-Preclinical R&D) 300 $4.74 $1,422.00 57,500 -0.84% view
S 2009-09-21 2009-09-22 11:53:10 CYTOKINETICS INC CYTK MORGANS DAVID J JR officer (EVP-Preclinical R&D) 1,400 $4.73 $6,622.14 57,800 -1.05% view
S 2009-09-21 2009-09-22 11:53:10 CYTOKINETICS INC CYTK MORGANS DAVID J JR officer (EVP-Preclinical R&D) 300 $4.69 $1,407.03 59,200 -1.92% view
S 2009-09-10 2009-09-11 12:06:05 CYTOKINETICS INC CYTK Blum Robert I director officer (President & CEO) 500 $3.21 $1,605.00 22,460 -58.88% view
S 2009-08-20 2009-08-21 16:00:39 CYTOKINETICS INC CYTK Sabry James H director 173 $2.82 $487.86 0 -41.84% view
S 2009-08-20 2009-08-21 16:00:39 CYTOKINETICS INC CYTK Sabry James H director 986 $2.88 $2,839.68 173 -38.89% view
S 2009-08-20 2009-08-21 16:00:39 CYTOKINETICS INC CYTK Sabry James H director 5,075 $2.87 $14,565.20 1,159 -39.37% view
S 2009-08-20 2009-08-21 16:00:39 CYTOKINETICS INC CYTK Sabry James H director 2,959 $2.86 $8,462.74 6,234 -39.86% view
S 2009-08-20 2009-08-21 16:00:39 CYTOKINETICS INC CYTK Sabry James H director 3,600 $2.85 $10,260.00 9,193 -40.35% view
S 2009-08-20 2009-08-21 16:00:39 CYTOKINETICS INC CYTK Sabry James H director 700 $2.84 $1,988.00 12,793 -40.85% view
S 2009-08-20 2009-08-21 16:00:39 CYTOKINETICS INC CYTK Sabry James H director 6,507 $2.83 $18,414.80 13,493 -41.34% view
S 2009-08-19 2009-08-21 16:00:39 CYTOKINETICS INC CYTK Sabry James H director 5,457 $2.84 $15,497.90 0 -40.85% view
S 2009-08-19 2009-08-21 16:00:39 CYTOKINETICS INC CYTK Sabry James H director 5,388 $2.83 $15,248.00 5,457 -41.34% view
S 2009-08-19 2009-08-21 16:00:39 CYTOKINETICS INC CYTK Sabry James H director 7,570 $2.82 $21,347.40 10,845 -41.84% view
S 2009-08-19 2009-08-21 16:00:39 CYTOKINETICS INC CYTK Sabry James H director 3,337 $2.81 $9,376.97 18,415 -42.35% view
S 2009-08-19 2009-08-21 16:00:39 CYTOKINETICS INC CYTK Sabry James H director 7,348 $2.80 $20,574.40 21,752 -42.86% view
S 2009-08-18 2009-08-19 17:19:16 CYTOKINETICS INC CYTK Blum Robert I director officer (President & CEO) 500 $2.81 $1,405.00 22,460 -42.35% view
S 2009-08-17 2009-08-19 16:25:41 CYTOKINETICS INC CYTK Sabry James H director 2,600 $2.78 $7,228.00 0 -26.62% view
S 2009-08-17 2009-08-19 16:25:41 CYTOKINETICS INC CYTK Sabry James H director 1,300 $2.79 $3,627.00 2,600 -26.16% view
S 2009-08-17 2009-08-19 16:25:41 CYTOKINETICS INC CYTK Sabry James H director 2,700 $2.77 $7,479.00 3,900 -27.08% view
S 2009-08-17 2009-08-19 16:25:41 CYTOKINETICS INC CYTK Sabry James H director 1,800 $2.76 $4,968.00 6,600 -27.54% view
S 2009-08-17 2009-08-19 16:25:41 CYTOKINETICS INC CYTK Sabry James H director 3,300 $2.75 $9,075.00 8,400 -28.00% view
S 2009-08-17 2009-08-19 16:25:41 CYTOKINETICS INC CYTK Sabry James H director 1,370 $2.74 $3,753.80 11,700 -28.47% view
S 2009-08-17 2009-08-19 16:25:41 CYTOKINETICS INC CYTK Sabry James H director 330 $2.73 $900.90 13,070 -28.94% view
S 2009-08-04 2009-08-06 16:56:56 CYTOKINETICS INC CYTK Blum Robert I director officer (President & CEO) 1,000 $3.00 $3,000.00 22,460 -7.00% view
S 2009-07-22 2009-07-24 13:17:27 CYTOKINETICS INC CYTK Blum Robert I director officer (President & CEO) 1,000 $2.83 $2,830.00 22,460 -3.89% view
S 2009-07-08 2009-07-10 18:01:16 CYTOKINETICS INC CYTK Blum Robert I director officer (President & CEO) 1,000 $2.72 $2,720.00 22,460 -10.29% view
S 2009-06-29 2009-06-30 15:36:09 CYTOKINETICS INC CYTK Sabry James H director officer (Executive Chairman) 600 $2.99 $1,794.00 49,550 0.67% view
S 2009-06-29 2009-06-30 15:36:09 CYTOKINETICS INC CYTK Sabry James H director officer (Executive Chairman) 300 $2.98 $895.50 50,150 0.50% view
S 2009-06-29 2009-06-30 15:36:09 CYTOKINETICS INC CYTK Sabry James H director officer (Executive Chairman) 700 $2.98 $2,086.00 50,450 0.34% view
S 2009-06-29 2009-06-30 15:36:09 CYTOKINETICS INC CYTK Sabry James H director officer (Executive Chairman) 100 $2.97 $297.50 51,150 0.17% view
S 2009-06-29 2009-06-30 15:36:09 CYTOKINETICS INC CYTK Sabry James H director officer (Executive Chairman) 400 $2.97 $1,188.00 51,250 0.00% view
S 2009-06-29 2009-06-30 15:36:09 CYTOKINETICS INC CYTK Sabry James H director officer (Executive Chairman) 100 $2.96 $296.00 51,650 -0.34% view
S 2009-06-29 2009-06-30 15:36:09 CYTOKINETICS INC CYTK Sabry James H director officer (Executive Chairman) 411 $2.95 $1,212.45 51,750 -0.68% view
S 2009-06-29 2009-06-30 15:36:09 CYTOKINETICS INC CYTK Sabry James H director officer (Executive Chairman) 300 $2.94 $882.00 52,161 -1.02% view
S 2009-06-29 2009-06-30 15:36:09 CYTOKINETICS INC CYTK Sabry James H director officer (Executive Chairman) 900 $2.92 $2,628.00 52,461 -1.71% view
S 2009-06-29 2009-06-30 15:36:09 CYTOKINETICS INC CYTK Sabry James H director officer (Executive Chairman) 1,489 $2.90 $4,318.10 53,361 -2.41% view
S 2009-06-29 2009-06-30 15:36:09 CYTOKINETICS INC CYTK Sabry James H director officer (Executive Chairman) 100 $2.90 $289.75 54,850 -2.50% view
S 2009-06-29 2009-06-30 15:36:09 CYTOKINETICS INC CYTK Sabry James H director officer (Executive Chairman) 1,100 $2.89 $3,179.00 54,950 -2.77% view
S 2009-06-29 2009-06-30 15:36:09 CYTOKINETICS INC CYTK Sabry James H director officer (Executive Chairman) 600 $2.88 $1,728.00 56,050 -3.12% view
S 2009-06-29 2009-06-30 15:36:09 CYTOKINETICS INC CYTK Sabry James H director officer (Executive Chairman) 1,000 $2.87 $2,870.00 56,650 -3.48% view
S 2009-06-29 2009-06-30 15:36:09 CYTOKINETICS INC CYTK Sabry James H director officer (Executive Chairman) 1,800 $2.86 $5,148.00 57,650 -3.85% view
S 2009-06-29 2009-06-30 15:36:09 CYTOKINETICS INC CYTK Sabry James H director officer (Executive Chairman) 2,200 $2.85 $6,270.00 59,450 -4.21% view
S 2009-06-29 2009-06-30 15:36:09 CYTOKINETICS INC CYTK Sabry James H director officer (Executive Chairman) 800 $2.84 $2,272.00 61,650 -4.58% view
S 2009-06-29 2009-06-30 15:36:09 CYTOKINETICS INC CYTK Sabry James H director officer (Executive Chairman) 696 $2.83 $1,969.68 62,450 -4.95% view
S 2009-06-29 2009-06-30 15:36:09 CYTOKINETICS INC CYTK Sabry James H director officer (Executive Chairman) 200 $2.82 $564.00 63,146 -5.32% view
S 2009-06-29 2009-06-30 15:36:09 CYTOKINETICS INC CYTK Sabry James H director officer (Executive Chairman) 2,663 $2.81 $7,483.03 63,346 -5.69% view
S 2009-06-29 2009-06-30 15:36:09 CYTOKINETICS INC CYTK Sabry James H director officer (Executive Chairman) 2,041 $2.80 $5,714.80 66,009 -6.07% view
S 2009-06-29 2009-06-30 15:36:09 CYTOKINETICS INC CYTK Sabry James H director officer (Executive Chairman) 200 $2.80 $559.50 68,050 -6.17% view
S 2009-06-29 2009-06-30 15:36:09 CYTOKINETICS INC CYTK Sabry James H director officer (Executive Chairman) 1,300 $2.79 $3,627.00 68,250 -6.45% view
S 2009-06-26 2009-06-30 15:36:09 CYTOKINETICS INC CYTK Sabry James H director officer (Executive Chairman) 800 $2.84 $2,272.00 69,550 -5.28% view
S 2009-06-26 2009-06-30 15:36:09 CYTOKINETICS INC CYTK Sabry James H director officer (Executive Chairman) 10,600 $2.83 $29,998.00 70,350 -5.65% view
S 2009-06-26 2009-06-30 15:36:09 CYTOKINETICS INC CYTK Sabry James H director officer (Executive Chairman) 8,300 $2.84 $23,530.50 80,950 -5.47% view
S 2009-06-26 2009-06-30 15:36:09 CYTOKINETICS INC CYTK Sabry James H director officer (Executive Chairman) 300 $2.85 $855.00 89,250 -4.91% view
S 2009-06-22 2009-06-23 17:59:08 CYTOKINETICS INC CYTK Blum Robert I director officer (President & CEO) 1,000 $2.74 $2,740.00 22,460 -2.19% view
S 2009-06-08 2009-06-10 16:28:45 CYTOKINETICS INC CYTK Blum Robert I director officer (President & CEO) 1,000 $2.97 $2,970.00 22,460 8.08% view
S 2009-06-05 2009-06-08 18:14:16 CYTOKINETICS INC CYTK Sabry James H director officer (Executive Chairman) 100 $2.91 $291.00 89,550 2.75% view
S 2009-06-05 2009-06-08 18:14:16 CYTOKINETICS INC CYTK Sabry James H director officer (Executive Chairman) 1,108 $2.90 $3,213.20 89,650 2.41% view
S 2009-06-05 2009-06-08 18:14:16 CYTOKINETICS INC CYTK Sabry James H director officer (Executive Chairman) 3,292 $2.89 $9,513.88 90,758 2.08% view
S 2009-06-05 2009-06-08 18:14:16 CYTOKINETICS INC CYTK Sabry James H director officer (Executive Chairman) 6,900 $2.88 $19,872.00 94,050 1.74% view
S 2009-06-05 2009-06-08 18:14:16 CYTOKINETICS INC CYTK Sabry James H director officer (Executive Chairman) 3,300 $2.87 $9,471.00 100,950 1.39% view
S 2009-06-05 2009-06-08 18:14:16 CYTOKINETICS INC CYTK Sabry James H director officer (Executive Chairman) 267 $2.87 $765.62 104,250 1.31% view
S 2009-06-05 2009-06-08 18:14:16 CYTOKINETICS INC CYTK Sabry James H director officer (Executive Chairman) 4,133 $2.86 $11,820.40 104,517 1.05% view
S 2009-06-05 2009-06-08 18:14:16 CYTOKINETICS INC CYTK Sabry James H director officer (Executive Chairman) 5,200 $2.85 $14,820.00 108,650 0.70% view
S 2009-06-05 2009-06-08 18:14:16 CYTOKINETICS INC CYTK Sabry James H director officer (Executive Chairman) 1,900 $2.84 $5,396.00 113,850 0.35% view
S 2009-06-05 2009-06-08 18:14:16 CYTOKINETICS INC CYTK Sabry James H director officer (Executive Chairman) 3,500 $2.83 $9,905.00 115,750 -0.00% view
S 2009-06-05 2009-06-08 18:14:16 CYTOKINETICS INC CYTK Sabry James H director officer (Executive Chairman) 100 $2.82 $282.00 119,250 -0.35% view
S 2009-06-04 2009-06-08 18:14:16 CYTOKINETICS INC CYTK Sabry James H director officer (Executive Chairman) 1,309 $2.93 $3,835.37 119,350 3.41% view
S 2009-06-04 2009-06-08 18:14:16 CYTOKINETICS INC CYTK Sabry James H director officer (Executive Chairman) 2,626 $2.92 $7,667.92 120,659 3.08% view
S 2009-06-04 2009-06-08 18:14:16 CYTOKINETICS INC CYTK Sabry James H director officer (Executive Chairman) 3,065 $2.91 $8,919.15 123,285 2.75% view
S 2009-06-04 2009-06-08 18:14:16 CYTOKINETICS INC CYTK Sabry James H director officer (Executive Chairman) 1,100 $2.90 $3,190.00 126,350 2.41% view
S 2009-06-04 2009-06-08 18:14:16 CYTOKINETICS INC CYTK Sabry James H director officer (Executive Chairman) 1,500 $2.89 $4,335.00 127,450 2.08% view
S 2009-06-04 2009-06-08 18:14:16 CYTOKINETICS INC CYTK Sabry James H director officer (Executive Chairman) 600 $2.88 $1,728.00 128,950 1.74% view
S 2009-06-04 2009-06-08 18:14:16 CYTOKINETICS INC CYTK Sabry James H director officer (Executive Chairman) 400 $2.87 $1,148.00 129,550 1.39% view
S 2009-06-04 2009-06-08 18:14:16 CYTOKINETICS INC CYTK Sabry James H director officer (Executive Chairman) 1,356 $2.86 $3,878.16 129,950 1.05% view
S 2009-06-04 2009-06-08 18:14:16 CYTOKINETICS INC CYTK Sabry James H director officer (Executive Chairman) 3,400 $2.85 $9,690.00 131,306 0.70% view
S 2009-06-04 2009-06-08 18:14:16 CYTOKINETICS INC CYTK Sabry James H director officer (Executive Chairman) 4,638 $2.84 $13,171.90 134,706 0.35% view
S 2009-06-04 2009-06-08 18:14:16 CYTOKINETICS INC CYTK Sabry James H director officer (Executive Chairman) 200 $2.84 $567.50 139,344 0.26% view
S 2009-06-04 2009-06-08 18:14:16 CYTOKINETICS INC CYTK Sabry James H director officer (Executive Chairman) 4,062 $2.83 $11,495.50 139,544 -0.00% view
S 2009-06-04 2009-06-08 18:14:16 CYTOKINETICS INC CYTK Sabry James H director officer (Executive Chairman) 3,600 $2.82 $10,152.00 143,606 -0.35% view
S 2009-06-04 2009-06-08 18:14:16 CYTOKINETICS INC CYTK Sabry James H director officer (Executive Chairman) 1,300 $2.81 $3,653.00 147,206 -0.71% view
S 2009-06-04 2009-06-08 18:14:16 CYTOKINETICS INC CYTK Sabry James H director officer (Executive Chairman) 1,044 $2.80 $2,923.20 148,506 -1.07% view
S 2009-05-22 2009-05-26 13:20:42 CYTOKINETICS INC CYTK Blum Robert I director officer (President & CEO) 1,000 $2.00 $2,000.00 22,460 -30.00% view
P* 2009-05-21 2009-05-22 14:00:11 CYTOKINETICS INC CYTK SCHMERTZLER MICHAEL director 1,522,840 $1.97 $2,999,990.00 5,389,210 40.61% view
S 2009-05-18 2009-05-19 16:51:11 CYTOKINETICS INC CYTK Blum Robert I director officer (President & CEO) 1,000 $2.00 $2,000.00 22,460 -31.50% view
S 2009-05-06 2009-05-08 15:44:08 CYTOKINETICS INC CYTK Blum Robert I director officer (President & CEO) 1,000 $2.00 $2,000.00 22,460 -47.50% view
S 2009-05-01 2009-05-05 18:34:56 CYTOKINETICS INC CYTK Blum Robert I director officer (President & CEO) 4,600 $2.00 $9,200.00 22,460 -40.50% view
S 2009-05-01 2009-05-05 18:34:56 CYTOKINETICS INC CYTK Blum Robert I director officer (President & CEO) 76 $2.01 $152.77 27,060 -39.79% view
S 2009-04-24 2009-04-28 17:22:58 CYTOKINETICS INC CYTK Blum Robert I director officer (President & CEO) 324 $2.00 $648.00 22,460 -4.00% view
S 2009-04-22 2009-04-23 16:06:20 CYTOKINETICS INC CYTK Blum Robert I director officer (President & CEO) 25,200 $2.00 $50,400.00 22,460 -4.00% view
S 2009-04-21 2009-04-23 16:06:20 CYTOKINETICS INC CYTK Blum Robert I director officer (President & CEO) 2,800 $2.00 $5,600.00 22,460 7.50% view
S 2009-03-30 2009-04-01 13:05:30 CYTOKINETICS INC CYTK Blum Robert I director officer (President & CEO) 2,000 $2.00 $4,000.00 22,460 7.00% view
S 2009-03-26 2009-03-27 18:46:54 CYTOKINETICS INC CYTK Blum Robert I director officer (President & CEO) 20,000 $2.00 $40,000.00 22,460 0.00% view
S 2009-03-17 2009-03-18 19:09:00 CYTOKINETICS INC CYTK Blum Robert I director officer (President & CEO) 4,538 $2.00 $9,076.00 22,460 10.00% view
S 2009-03-16 2009-03-18 19:09:00 CYTOKINETICS INC CYTK Blum Robert I director officer (President & CEO) 962 $2.00 $1,924.00 22,460 9.00% view
S 2009-03-02 2009-03-03 16:13:42 CYTOKINETICS INC CYTK MORGANS DAVID J JR officer (EVP-Preclinical R&D) 100 $1.61 $161.00 59,500 -9.32% view
S 2009-03-02 2009-03-03 16:13:42 CYTOKINETICS INC CYTK MORGANS DAVID J JR officer (EVP-Preclinical R&D) 100 $1.58 $158.00 59,600 -11.39% view
S 2009-03-02 2009-03-03 16:13:42 CYTOKINETICS INC CYTK MORGANS DAVID J JR officer (EVP-Preclinical R&D) 900 $1.55 $1,395.00 59,700 -13.55% view
S 2009-03-02 2009-03-03 16:13:42 CYTOKINETICS INC CYTK MORGANS DAVID J JR officer (EVP-Preclinical R&D) 3,700 $1.54 $5,698.00 60,600 -14.29% view
S 2009-03-02 2009-03-03 16:13:41 CYTOKINETICS INC CYTK MORGANS DAVID J JR officer (EVP-Preclinical R&D) 200 $1.52 $304.00 64,300 -15.79% view
S 2009-02-02 2009-02-04 12:28:50 CYTOKINETICS INC CYTK MORGANS DAVID J JR officer (EVP-Preclinical R&D) 500 $2.19 $1,095.00 64,500 33.79% view
S 2009-02-02 2009-02-04 12:28:50 CYTOKINETICS INC CYTK MORGANS DAVID J JR officer (EVP-Preclinical R&D) 950 $2.17 $2,061.50 65,000 33.18% view
S 2009-02-02 2009-02-04 12:28:50 CYTOKINETICS INC CYTK MORGANS DAVID J JR officer (EVP-Preclinical R&D) 300 $2.16 $648.99 65,950 32.97% view
S 2009-02-02 2009-02-04 12:28:50 CYTOKINETICS INC CYTK MORGANS DAVID J JR officer (EVP-Preclinical R&D) 1,050 $2.16 $2,268.00 66,250 32.87% view
S 2009-02-02 2009-02-04 12:28:50 CYTOKINETICS INC CYTK MORGANS DAVID J JR officer (EVP-Preclinical R&D) 300 $2.15 $645.66 67,300 32.63% view
S 2009-02-02 2009-02-04 12:28:50 CYTOKINETICS INC CYTK MORGANS DAVID J JR officer (EVP-Preclinical R&D) 500 $2.15 $1,075.00 67,600 32.56% view
S 2009-02-02 2009-02-04 12:28:50 CYTOKINETICS INC CYTK MORGANS DAVID J JR officer (EVP-Preclinical R&D) 500 $2.13 $1,065.00 68,100 31.92% view
S 2009-02-02 2009-02-04 12:28:50 CYTOKINETICS INC CYTK MORGANS DAVID J JR officer (EVP-Preclinical R&D) 400 $2.11 $843.96 68,600 31.28% view
S 2009-02-02 2009-02-04 12:28:50 CYTOKINETICS INC CYTK MORGANS DAVID J JR officer (EVP-Preclinical R&D) 400 $2.11 $842.68 69,000 31.17% view
S 2009-02-02 2009-02-04 12:28:50 CYTOKINETICS INC CYTK MORGANS DAVID J JR officer (EVP-Preclinical R&D) 100 $2.07 $207.00 69,400 29.95% view
S 2009-01-02 2009-01-05 18:19:23 CYTOKINETICS INC CYTK MORGANS DAVID J JR officer (EVP-Preclinical R&D) 1,125 $2.89 $3,251.25 69,500 23.88% view
S 2009-01-02 2009-01-05 18:19:23 CYTOKINETICS INC CYTK MORGANS DAVID J JR officer (EVP-Preclinical R&D) 847 $2.88 $2,439.36 70,625 23.61% view
S 2009-01-02 2009-01-05 18:19:23 CYTOKINETICS INC CYTK MORGANS DAVID J JR officer (EVP-Preclinical R&D) 900 $2.87 $2,583.00 71,472 23.34% view
S 2009-01-02 2009-01-05 18:19:23 CYTOKINETICS INC CYTK MORGANS DAVID J JR officer (EVP-Preclinical R&D) 400 $2.85 $1,140.00 72,372 22.81% view
S 2009-01-02 2009-01-05 18:19:23 CYTOKINETICS INC CYTK MORGANS DAVID J JR officer (EVP-Preclinical R&D) 200 $2.81 $562.00 72,772 21.71% view
S 2009-01-02 2009-01-05 18:19:23 CYTOKINETICS INC CYTK MORGANS DAVID J JR officer (EVP-Preclinical R&D) 300 $2.80 $840.00 72,972 21.43% view
S 2009-01-02 2009-01-05 18:19:23 CYTOKINETICS INC CYTK MORGANS DAVID J JR officer (EVP-Preclinical R&D) 128 $2.79 $357.12 73,272 21.15% view
S 2009-01-02 2009-01-05 18:19:23 CYTOKINETICS INC CYTK MORGANS DAVID J JR officer (EVP-Preclinical R&D) 100 $2.78 $278.00 73,400 20.86% view
S 2009-01-02 2009-01-05 18:19:23 CYTOKINETICS INC CYTK MORGANS DAVID J JR officer (EVP-Preclinical R&D) 288 $2.76 $794.88 73,500 20.29% view
S 2009-01-02 2009-01-05 18:19:23 CYTOKINETICS INC CYTK MORGANS DAVID J JR officer (EVP-Preclinical R&D) 312 $2.75 $858.00 73,788 20.00% view
S 2009-01-02 2009-01-05 18:19:23 CYTOKINETICS INC CYTK MORGANS DAVID J JR officer (EVP-Preclinical R&D) 400 $2.71 $1,084.00 74,100 18.82% view
S 2008-12-01 2008-12-02 19:40:36 CYTOKINETICS INC CYTK MORGANS DAVID J JR officer (EVP-Preclinical R&D) 100 $2.39 $239.00 74,500 -19.25% view
S 2008-12-01 2008-12-02 19:40:36 CYTOKINETICS INC CYTK MORGANS DAVID J JR officer (EVP-Preclinical R&D) 200 $2.38 $476.00 74,600 -19.75% view
S 2008-12-01 2008-12-02 19:40:36 CYTOKINETICS INC CYTK MORGANS DAVID J JR officer (EVP-Preclinical R&D) 100 $2.30 $230.00 74,800 -23.91% view
S 2008-12-01 2008-12-02 19:40:36 CYTOKINETICS INC CYTK MORGANS DAVID J JR officer (EVP-Preclinical R&D) 100 $2.29 $229.00 74,900 -24.45% view
S 2008-12-01 2008-12-02 19:40:36 CYTOKINETICS INC CYTK MORGANS DAVID J JR officer (EVP-Preclinical R&D) 460 $2.24 $1,030.40 75,000 -27.23% view
S 2008-12-01 2008-12-02 19:40:36 CYTOKINETICS INC CYTK MORGANS DAVID J JR officer (EVP-Preclinical R&D) 700 $2.22 $1,554.00 75,460 -28.38% view
S 2008-12-01 2008-12-02 19:40:36 CYTOKINETICS INC CYTK MORGANS DAVID J JR officer (EVP-Preclinical R&D) 429 $2.14 $918.06 76,160 -33.18% view
S 2008-12-01 2008-12-02 19:40:36 CYTOKINETICS INC CYTK MORGANS DAVID J JR officer (EVP-Preclinical R&D) 211 $2.12 $447.32 76,589 -34.43% view
S 2008-12-01 2008-12-02 19:40:36 CYTOKINETICS INC CYTK MORGANS DAVID J JR officer (EVP-Preclinical R&D) 1,165 $2.10 $2,446.50 76,800 -35.71% view
S 2008-12-01 2008-12-02 19:40:36 CYTOKINETICS INC CYTK MORGANS DAVID J JR officer (EVP-Preclinical R&D) 155 $2.09 $323.95 77,965 -36.36% view
S 2008-12-01 2008-12-02 19:40:36 CYTOKINETICS INC CYTK MORGANS DAVID J JR officer (EVP-Preclinical R&D) 1,380 $2.08 $2,870.40 78,120 -37.02% view
S 2008-11-03 2008-11-04 19:35:55 CYTOKINETICS INC CYTK MORGANS DAVID J JR officer (EVP-Preclinical R&D) 100 $3.04 $304.00 79,500 31.91% view
S 2008-11-03 2008-11-04 19:35:55 CYTOKINETICS INC CYTK MORGANS DAVID J JR officer (EVP-Preclinical R&D) 300 $3.03 $909.00 79,600 31.68% view
S 2008-11-03 2008-11-04 19:35:55 CYTOKINETICS INC CYTK MORGANS DAVID J JR officer (EVP-Preclinical R&D) 300 $3.02 $906.00 79,900 31.46% view
S 2008-11-03 2008-11-04 19:35:55 CYTOKINETICS INC CYTK MORGANS DAVID J JR officer (EVP-Preclinical R&D) 100 $3.01 $301.00 80,200 31.23% view
S 2008-11-03 2008-11-04 19:35:55 CYTOKINETICS INC CYTK MORGANS DAVID J JR officer (EVP-Preclinical R&D) 100 $2.99 $299.00 80,300 30.77% view
S 2008-11-03 2008-11-04 19:35:55 CYTOKINETICS INC CYTK MORGANS DAVID J JR officer (EVP-Preclinical R&D) 100 $2.98 $298.00 80,400 30.54% view
S 2008-11-03 2008-11-04 19:35:55 CYTOKINETICS INC CYTK MORGANS DAVID J JR officer (EVP-Preclinical R&D) 100 $2.97 $297.00 80,500 30.30% view
S 2008-11-03 2008-11-04 19:35:55 CYTOKINETICS INC CYTK MORGANS DAVID J JR officer (EVP-Preclinical R&D) 600 $2.95 $1,770.00 80,600 29.83% view
S 2008-11-03 2008-11-04 19:35:55 CYTOKINETICS INC CYTK MORGANS DAVID J JR officer (EVP-Preclinical R&D) 200 $2.94 $588.00 81,200 29.59% view
S 2008-11-03 2008-11-04 19:35:55 CYTOKINETICS INC CYTK MORGANS DAVID J JR officer (EVP-Preclinical R&D) 100 $2.93 $293.50 81,400 29.47% view
S 2008-11-03 2008-11-04 19:35:55 CYTOKINETICS INC CYTK MORGANS DAVID J JR officer (EVP-Preclinical R&D) 100 $2.93 $293.00 81,500 29.35% view
S 2008-11-03 2008-11-04 19:35:55 CYTOKINETICS INC CYTK MORGANS DAVID J JR officer (EVP-Preclinical R&D) 100 $2.92 $292.00 81,600 29.11% view
S 2008-11-03 2008-11-04 19:35:55 CYTOKINETICS INC CYTK MORGANS DAVID J JR officer (EVP-Preclinical R&D) 200 $2.90 $580.62 81,700 28.70% view
S 2008-11-03 2008-11-04 19:35:55 CYTOKINETICS INC CYTK MORGANS DAVID J JR officer (EVP-Preclinical R&D) 87 $2.90 $252.30 81,900 28.62% view
S 2008-11-03 2008-11-04 19:35:55 CYTOKINETICS INC CYTK MORGANS DAVID J JR officer (EVP-Preclinical R&D) 1,500 $2.89 $4,335.00 81,987 28.37% view
S 2008-11-03 2008-11-04 19:35:55 CYTOKINETICS INC CYTK MORGANS DAVID J JR officer (EVP-Preclinical R&D) 13 $2.87 $37.31 83,487 27.87% view
S 2008-11-03 2008-11-04 19:35:55 CYTOKINETICS INC CYTK MORGANS DAVID J JR officer (EVP-Preclinical R&D) 100 $2.86 $286.00 83,500 27.62% view
S 2008-11-03 2008-11-04 19:35:55 CYTOKINETICS INC CYTK MORGANS DAVID J JR officer (EVP-Preclinical R&D) 300 $2.85 $855.00 83,600 27.37% view
S 2008-11-03 2008-11-04 19:35:55 CYTOKINETICS INC CYTK MORGANS DAVID J JR officer (EVP-Preclinical R&D) 500 $2.84 $1,420.00 83,900 27.11% view
S 2008-11-03 2008-11-04 19:35:55 CYTOKINETICS INC CYTK MORGANS DAVID J JR officer (EVP-Preclinical R&D) 100 $2.83 $283.00 84,400 26.86% view
S 2008-09-26 2008-09-30 15:16:40 CYTOKINETICS INC CYTK Sabry James H director officer (Executive Chairman) 100 $4.78 $478.00 149,550 37.45% view
S 2008-09-26 2008-09-30 15:16:40 CYTOKINETICS INC CYTK Sabry James H director officer (Executive Chairman) 300 $5.01 $1,503.00 149,650 40.32% view
S 2008-09-26 2008-09-30 15:16:40 CYTOKINETICS INC CYTK Sabry James H director officer (Executive Chairman) 2,100 $5.00 $10,500.00 149,950 40.20% view
S 2008-09-26 2008-09-30 15:16:40 CYTOKINETICS INC CYTK Sabry James H director officer (Executive Chairman) 3,600 $4.99 $17,964.00 152,050 40.08% view
S 2008-09-26 2008-09-30 15:16:40 CYTOKINETICS INC CYTK Sabry James H director officer (Executive Chairman) 1,000 $4.96 $4,960.00 155,650 39.72% view
S 2008-09-26 2008-09-30 15:16:40 CYTOKINETICS INC CYTK Sabry James H director officer (Executive Chairman) 600 $4.93 $2,958.00 156,650 39.35% view
S 2008-09-26 2008-09-30 15:16:40 CYTOKINETICS INC CYTK Sabry James H director officer (Executive Chairman) 800 $4.92 $3,936.00 157,250 39.23% view
S 2008-09-26 2008-09-30 15:16:40 CYTOKINETICS INC CYTK Sabry James H director officer (Executive Chairman) 1,700 $4.91 $8,347.00 158,050 39.10% view
S 2008-09-26 2008-09-30 15:16:40 CYTOKINETICS INC CYTK Sabry James H director officer (Executive Chairman) 1,600 $4.90 $7,840.00 159,750 38.98% view
S 2008-09-26 2008-09-30 15:16:40 CYTOKINETICS INC CYTK Sabry James H director officer (Executive Chairman) 100 $4.89 $489.00 161,350 38.85% view
S 2008-09-26 2008-09-30 15:16:40 CYTOKINETICS INC CYTK Sabry James H director officer (Executive Chairman) 700 $4.88 $3,416.00 161,450 38.73% view
S 2008-09-26 2008-09-30 15:16:40 CYTOKINETICS INC CYTK Sabry James H director officer (Executive Chairman) 300 $4.85 $1,455.00 162,150 38.35% view
S 2008-09-26 2008-09-30 15:16:40 CYTOKINETICS INC CYTK Sabry James H director officer (Executive Chairman) 395 $4.84 $1,911.80 162,450 38.22% view
S 2008-09-26 2008-09-30 15:16:40 CYTOKINETICS INC CYTK Sabry James H director officer (Executive Chairman) 2,205 $4.83 $10,650.20 162,845 38.10% view
S 2008-09-26 2008-09-30 15:16:40 CYTOKINETICS INC CYTK Sabry James H director officer (Executive Chairman) 100 $4.81 $481.00 165,050 37.84% view
S 2008-09-26 2008-09-30 15:16:40 CYTOKINETICS INC CYTK Sabry James H director officer (Executive Chairman) 297 $4.80 $1,425.60 165,150 37.71% view
S 2008-09-26 2008-09-30 15:16:40 CYTOKINETICS INC CYTK Sabry James H director officer (Executive Chairman) 403 $4.77 $1,922.31 165,447 37.32% view
S 2008-09-26 2008-09-30 15:16:40 CYTOKINETICS INC CYTK Sabry James H director officer (Executive Chairman) 100 $4.73 $473.00 165,850 36.79% view
S 2008-09-26 2008-09-30 15:16:40 CYTOKINETICS INC CYTK Sabry James H director officer (Executive Chairman) 400 $4.70 $1,880.00 165,950 36.38% view
S 2008-09-26 2008-09-30 15:16:40 CYTOKINETICS INC CYTK Sabry James H director officer (Executive Chairman) 200 $4.69 $938.00 166,350 36.25% view
S 2008-09-26 2008-09-30 15:16:40 CYTOKINETICS INC CYTK Sabry James H director officer (Executive Chairman) 506 $4.68 $2,368.08 166,550 36.11% view
S 2008-09-26 2008-09-30 15:16:40 CYTOKINETICS INC CYTK Sabry James H director officer (Executive Chairman) 2,098 $4.66 $9,776.68 167,056 35.84% view
S 2008-09-26 2008-09-30 15:16:40 CYTOKINETICS INC CYTK Sabry James H director officer (Executive Chairman) 396 $4.65 $1,841.40 169,154 35.70% view
S 2008-09-24 2008-09-26 12:04:14 CYTOKINETICS INC CYTK Sabry James H director officer (Executive Chairman) 2,000 $5.10 $10,206.00 169,550 41.41% view
S 2008-09-24 2008-09-26 12:04:14 CYTOKINETICS INC CYTK Sabry James H director officer (Executive Chairman) 2,100 $5.03 $10,558.40 171,550 40.53% view
S 2008-09-24 2008-09-26 12:04:14 CYTOKINETICS INC CYTK Sabry James H director officer (Executive Chairman) 2,000 $4.93 $9,856.00 173,650 39.33% view
S 2008-09-24 2008-09-26 12:04:14 CYTOKINETICS INC CYTK Sabry James H director officer (Executive Chairman) 2,100 $4.91 $10,304.10 175,650 39.06% view
S 2008-09-24 2008-09-26 12:04:14 CYTOKINETICS INC CYTK Sabry James H director officer (Executive Chairman) 2,000 $4.83 $9,664.00 177,750 38.12% view
S 2008-09-24 2008-09-26 12:04:14 CYTOKINETICS INC CYTK Sabry James H director officer (Executive Chairman) 2,200 $4.82 $10,611.70 179,750 38.01% view
S 2008-09-24 2008-09-26 12:04:14 CYTOKINETICS INC CYTK Sabry James H director officer (Executive Chairman) 2,400 $4.82 $11,565.10 181,950 37.95% view
S 2008-09-24 2008-09-26 12:04:14 CYTOKINETICS INC CYTK Sabry James H director officer (Executive Chairman) 2,000 $4.66 $9,327.00 184,350 35.89% view
S 2008-09-24 2008-09-26 12:04:14 CYTOKINETICS INC CYTK Sabry James H director officer (Executive Chairman) 2,000 $4.63 $9,258.60 186,350 35.41% view
S 2008-09-24 2008-09-26 12:04:14 CYTOKINETICS INC CYTK Sabry James H director officer (Executive Chairman) 1,100 $4.55 $5,005.00 188,350 34.29% view
S 2008-09-24 2008-09-26 12:04:14 CYTOKINETICS INC CYTK Sabry James H director officer (Executive Chairman) 100 $4.48 $448.00 189,450 33.26% view
S 2008-09-15 2008-09-17 17:43:51 CYTOKINETICS INC CYTK Blum Robert I director officer (President & CEO) 5,838 $5.00 $29,190.00 22,460 52.60% view
S 2008-08-29 2008-09-03 13:44:11 CYTOKINETICS INC CYTK Blum Robert I director officer (President & CEO) 1,200 $5.38 $6,456.00 22,460 13.94% view
S 2008-08-29 2008-09-03 13:44:11 CYTOKINETICS INC CYTK Blum Robert I director officer (President & CEO) 2,676 $5.36 $14,343.40 23,660 13.62% view
S 2008-08-29 2008-09-03 13:44:11 CYTOKINETICS INC CYTK Blum Robert I director officer (President & CEO) 4,500 $5.25 $23,625.00 26,336 11.81% view
S 2008-08-29 2008-09-03 13:44:11 CYTOKINETICS INC CYTK Blum Robert I director officer (President & CEO) 1,300 $5.20 $6,760.00 30,836 10.96% view
S 2008-08-15 2008-08-18 14:43:40 CYTOKINETICS INC CYTK Blum Robert I director officer (President & CEO) 1,411 $5.00 $7,055.00 22,460 6.00% view
S 2008-08-15 2008-08-18 14:43:40 CYTOKINETICS INC CYTK Blum Robert I director officer (President & CEO) 3,889 $5.00 $19,445.00 23,871 6.00% view
S 2008-07-31 2008-08-04 18:40:49 CYTOKINETICS INC CYTK Blum Robert I director officer (President & CEO) 7,349 $5.00 $36,745.00 23,871 -4.00% view
S 2008-07-31 2008-08-04 18:40:49 CYTOKINETICS INC CYTK Blum Robert I director officer (President & CEO) 13,302 $5.00 $66,510.00 31,220 -4.00% view
S 2008-04-25 2008-04-25 20:46:38 CYTOKINETICS INC CYTK SPUDICH JAMES A director 1,200 $3.32 $3,984.00 180,600 -9.34% view
* An * after P or S in the Buy/Sell column means the transaction was filed by the insider as open market, but it was marked as private transaction by insidercow's proprietary method
Show all 944 records.
Enter Another Stock Symbol: